createdAt,value
2022-12-29T10:08:27.134Z,12.6
2022-12-29T10:13:27.005Z,12.7
2022-12-29T10:18:26.976Z,12.7
2022-12-29T10:23:26.964Z,12.7
2022-12-29T10:28:26.996Z,12.7
2022-12-29T10:33:35.116Z,12.8
2022-12-29T10:38:26.900Z,12.9
2022-12-29T10:43:26.921Z,12.9
2022-12-29T10:48:31.586Z,13
2022-12-29T10:53:26.906Z,13.1
2022-12-29T10:58:26.914Z,13.3
2022-12-29T11:03:26.983Z,13.3
2022-12-29T11:08:27.118Z,13.4
2022-12-29T11:13:27.028Z,13.4
2022-12-29T11:18:26.992Z,13.4
2022-12-29T11:23:26.925Z,13.4
2022-12-29T11:28:26.931Z,13.4
2022-12-29T11:33:26.898Z,13.4
2022-12-29T11:38:26.878Z,13.4
2022-12-29T11:43:26.883Z,13.4
2022-12-29T11:48:26.902Z,13.4
2022-12-29T11:53:26.879Z,13.3
2022-12-29T11:58:26.910Z,13.3
2022-12-29T12:03:26.982Z,13.2
2022-12-29T12:08:26.899Z,13.1
2022-12-29T12:13:26.874Z,13
2022-12-29T12:18:26.890Z,12.9
2022-12-29T12:23:26.905Z,12.8
2022-12-29T12:28:29.382Z,12.8
2022-12-29T12:33:26.880Z,12.7
2022-12-29T12:38:26.974Z,12.7
2022-12-29T12:43:26.890Z,12.6
2022-12-29T12:48:27.140Z,12.6
2022-12-29T12:53:26.915Z,12.6
2022-12-29T12:58:26.882Z,12.6
2022-12-29T13:03:26.928Z,12.6
2022-12-29T13:08:26.895Z,12.6
2022-12-29T13:13:26.913Z,12.7
2022-12-29T13:18:26.861Z,12.8
2022-12-29T13:23:26.878Z,12.8
2022-12-29T13:28:26.973Z,12.8
2022-12-29T13:33:26.859Z,12.8
2022-12-29T13:38:26.859Z,12.8
2022-12-29T13:43:26.872Z,12.8
2022-12-29T13:48:26.917Z,12.7
2022-12-29T13:53:26.857Z,12.7
2022-12-29T13:58:26.865Z,12.7
2022-12-29T14:03:30.420Z,12.7
2022-12-29T14:08:26.893Z,12.8
2022-12-29T14:13:26.887Z,12.7
2022-12-29T14:18:26.850Z,12.7
2022-12-29T14:23:26.957Z,12.7
2022-12-29T14:28:26.996Z,12.6
2022-12-29T14:33:27.031Z,12.6
2022-12-29T14:38:26.989Z,12.6
2022-12-29T14:43:26.992Z,12.6
2022-12-29T14:48:26.993Z,12.6
2022-12-29T14:53:26.978Z,12.5
2022-12-29T14:58:26.973Z,12.5
2022-12-29T15:03:27.063Z,12.5
2022-12-29T15:08:27.012Z,12.5
2022-12-29T15:13:26.884Z,12.5
2022-12-29T15:18:26.876Z,12.6
2022-12-29T15:23:26.863Z,12.5
2022-12-29T15:28:26.960Z,12.3
2022-12-29T15:33:26.867Z,12
2022-12-29T15:38:32.451Z,11.8
2022-12-29T15:43:26.882Z,11.7
2022-12-29T15:48:26.973Z,11.7
2022-12-29T15:53:27.032Z,11.7
2022-12-29T15:58:26.902Z,11.7
2022-12-29T16:03:26.979Z,11.7
2022-12-29T16:08:26.954Z,11.6
2022-12-29T16:13:26.962Z,11.6
2022-12-29T16:18:26.895Z,11.6
2022-12-29T16:23:26.947Z,11.6
2022-12-29T16:28:26.960Z,11.6
2022-12-29T16:33:26.922Z,11.6
2022-12-29T16:38:26.894Z,11.6
2022-12-29T16:43:26.881Z,11.6
2022-12-29T16:48:26.923Z,11.6
2022-12-29T16:53:26.918Z,11.5
2022-12-29T16:58:26.895Z,11.5
2022-12-29T17:03:26.934Z,11.5
2022-12-29T17:08:26.907Z,11.5
2022-12-29T17:13:26.885Z,11.5
2022-12-29T17:18:26.877Z,11.5
2022-12-29T17:23:26.962Z,11.5
2022-12-29T17:28:26.958Z,11.5
2022-12-29T17:33:26.900Z,11.5
2022-12-29T17:38:26.885Z,11.5
2022-12-29T17:43:30.195Z,11.6
2022-12-29T17:48:26.964Z,11.6
2022-12-29T17:53:26.964Z,11.7
2022-12-29T17:58:26.977Z,11.8
2022-12-29T18:03:27.164Z,11.8
2022-12-29T18:08:26.962Z,11.8
2022-12-29T18:13:30.817Z,11.9
2022-12-29T18:18:26.934Z,11.9
2022-12-29T18:23:26.942Z,11.9
2022-12-29T18:28:26.997Z,11.9
2022-12-29T18:33:27.042Z,11.9
2022-12-29T18:38:26.988Z,11.8
2022-12-29T18:43:26.978Z,11.8
2022-12-29T18:48:26.995Z,11.8
2022-12-29T18:53:26.985Z,11.8
2022-12-29T18:58:32.185Z,11.8
2022-12-29T19:03:27.004Z,11.8
2022-12-29T19:08:27.015Z,11.8
2022-12-29T19:13:26.988Z,11.8
2022-12-29T19:18:44.415Z,11.8
2022-12-29T19:23:26.978Z,11.8
2022-12-29T19:28:26.959Z,11.7
2022-12-29T19:33:26.968Z,11.7
2022-12-29T19:38:26.944Z,11.7
2022-12-29T19:43:26.961Z,11.7
2022-12-29T19:48:26.989Z,11.7
2022-12-29T19:53:26.967Z,11.7
2022-12-29T19:58:26.944Z,11.7
2022-12-29T20:03:27.034Z,11.7
2022-12-29T20:08:26.969Z,11.7
2022-12-29T20:13:26.975Z,11.7
2022-12-29T20:18:29.283Z,11.7
2022-12-29T20:23:26.959Z,11.6
2022-12-29T20:28:26.994Z,11.6
2022-12-29T20:33:26.959Z,11.6
2022-12-29T20:38:26.967Z,11.5
2022-12-29T20:43:26.961Z,11.5
2022-12-29T20:48:26.985Z,11.5
2022-12-29T20:53:27.002Z,11.5
2022-12-29T20:58:26.948Z,11.5
2022-12-29T21:03:27.032Z,11.6
2022-12-29T21:08:26.976Z,11.6
2022-12-29T21:13:26.977Z,11.6
2022-12-29T21:18:26.947Z,11.5
2022-12-29T21:23:26.972Z,11.5
2022-12-29T21:28:26.988Z,11.6
2022-12-29T21:33:27.014Z,11.5
2022-12-29T21:38:26.958Z,11.6
2022-12-29T21:43:26.983Z,11.6
2022-12-29T21:48:27.021Z,11.6
2022-12-29T21:53:26.966Z,11.6
2022-12-29T21:58:26.969Z,11.5
2022-12-29T22:03:27.279Z,11.5
2022-12-29T22:08:26.992Z,11.5
2022-12-29T22:13:26.972Z,11.4
2022-12-29T22:18:26.989Z,11.3
2022-12-29T22:23:26.994Z,11.3
2022-12-29T22:28:26.990Z,11.3
2022-12-29T22:33:27.028Z,11.3
2022-12-29T22:38:26.990Z,11.3
2022-12-29T22:43:26.994Z,11.3
2022-12-29T22:48:27.054Z,11.3
2022-12-29T22:53:26.986Z,11.2
2022-12-29T22:58:27.015Z,11.2
2022-12-29T23:03:27.072Z,11.2
2022-12-29T23:08:27.035Z,11.1
2022-12-29T23:13:27.002Z,11.1
2022-12-29T23:18:26.975Z,11.1
2022-12-29T23:23:27.003Z,11.1
2022-12-29T23:28:27.014Z,11.1
2022-12-29T23:33:26.988Z,11.1
2022-12-29T23:38:26.989Z,11
2022-12-29T23:43:26.998Z,11
2022-12-29T23:48:27.007Z,11
2022-12-29T23:53:26.974Z,11
2022-12-29T23:58:26.990Z,11
